createdAt,value
2022-10-05T00:00:22.392Z,8.25
2022-10-05T00:01:24.579Z,6.05
2022-10-05T00:02:27.386Z,7.60
2022-10-05T00:03:38.979Z,7.45
2022-10-05T00:04:41.209Z,9.52
2022-10-05T00:05:45.599Z,6.35
2022-10-05T00:06:56.034Z,5.78
2022-10-05T00:08:11.519Z,7.50
2022-10-05T00:09:18.179Z,10.40
2022-10-05T00:10:20.844Z,7.15
2022-10-05T00:11:23.242Z,7.90
2022-10-05T00:12:27.328Z,8.07
2022-10-05T00:13:31.277Z,12.85
2022-10-05T00:14:35.522Z,6.90
2022-10-05T00:15:37.670Z,8.82
2022-10-05T00:16:39.891Z,8.23
2022-10-05T00:17:42.953Z,10.40
2022-10-05T00:18:50.721Z,7.07
2022-10-05T00:19:54.714Z,9.35
2022-10-05T00:20:57.115Z,16.02
2022-10-05T00:22:24.522Z,7.20
2022-10-05T00:23:32.588Z,6.90
2022-10-05T00:24:35.338Z,12.27
2022-10-05T00:25:38.943Z,11.70
2022-10-05T00:26:41.162Z,7.03
2022-10-05T00:27:45.178Z,9.10
2022-10-05T00:28:48.158Z,13.00
2022-10-05T00:29:52.773Z,7.63
2022-10-05T00:30:59.132Z,7.85
2022-10-05T00:32:01.314Z,7.78
2022-10-05T00:33:03.659Z,9.10
2022-10-05T00:34:05.860Z,7.07
2022-10-05T00:35:09.262Z,8.38
2022-10-05T00:36:12.232Z,9.00
2022-10-05T00:37:15.049Z,9.88
2022-10-05T00:38:17.158Z,6.68
2022-10-05T00:39:19.395Z,5.57
2022-10-05T00:40:53.490Z,6.93
2022-10-05T00:42:22.318Z,7.00
2022-10-05T00:43:30.393Z,6.38
2022-10-05T00:44:51.162Z,9.02
2022-10-05T00:46:07.779Z,7.07
2022-10-05T00:47:33.175Z,6.50
2022-10-05T00:48:48.330Z,10.18
2022-10-05T00:50:11.781Z,7.35
2022-10-05T00:51:24.180Z,9.40
2022-10-05T00:52:44.491Z,12.52
2022-10-05T00:54:05.340Z,12.57
2022-10-05T00:55:40.486Z,7.25
2022-10-05T00:57:18.332Z,7.53
2022-10-05T00:59:59.081Z,9.05
2022-10-05T01:01:17.249Z,6.82
2022-10-05T01:02:58.266Z,8.95
2022-10-05T01:04:21.872Z,8.02
2022-10-05T01:05:36.873Z,8.23
2022-10-05T01:06:44.849Z,5.20
2022-10-05T01:08:23.896Z,7.57
2022-10-05T01:09:52.885Z,5.10
2022-10-05T01:11:10.785Z,8.82
2022-10-05T01:12:22.962Z,9.07
2022-10-05T01:13:42.413Z,8.88
2022-10-05T01:15:09.988Z,8.48
2022-10-05T01:16:12.114Z,10.60
2022-10-05T01:17:25.143Z,8.77
2022-10-05T01:18:34.250Z,8.15
2022-10-05T01:19:46.929Z,10.50
2022-10-05T01:21:27.178Z,5.45
2022-10-05T01:23:19.790Z,9.30
2022-10-05T01:24:55.741Z,7.85
2022-10-05T01:26:30.305Z,6.72
2022-10-05T01:27:36.519Z,8.10
2022-10-05T01:28:47.733Z,9.43
2022-10-05T01:29:59.977Z,9.20
2022-10-05T01:31:05.271Z,10.63
2022-10-05T01:32:07.392Z,7.07
2022-10-05T01:33:22.744Z,14.07
2022-10-05T01:34:40.897Z,7.93
2022-10-05T01:35:48.911Z,8.52
2022-10-05T01:37:12.474Z,7.13
2022-10-05T01:38:25.427Z,10.70
2022-10-05T01:39:55.208Z,6.82
2022-10-05T01:41:13.133Z,8.18
2022-10-05T01:42:30.158Z,8.07
2022-10-05T01:43:51.124Z,8.18
2022-10-05T01:45:09.773Z,6.72
2022-10-05T01:46:24.400Z,9.48
2022-10-05T01:47:49.706Z,6.72
2022-10-05T01:48:51.798Z,9.68
2022-10-05T01:49:56.485Z,6.03
2022-10-05T01:51:17.474Z,7.97
2022-10-05T01:52:22.407Z,7.13
2022-10-05T01:54:15.283Z,10.30
2022-10-05T01:55:41.875Z,11.02
2022-10-05T01:57:00.761Z,5.38
2022-10-05T01:58:27.651Z,10.27
2022-10-05T01:59:59.031Z,7.03
2022-10-05T02:01:10.433Z,9.50
2022-10-05T02:02:24.341Z,7.60
2022-10-05T02:03:38.112Z,8.27
2022-10-05T02:05:06.979Z,9.73
2022-10-05T02:06:18.719Z,7.80
2022-10-05T02:07:58.902Z,12.70
2022-10-05T02:09:09.991Z,8.95
2022-10-05T02:10:20.535Z,11.38
2022-10-05T02:11:23.268Z,10.98
2022-10-05T02:12:29.793Z,11.45
2022-10-05T02:13:40.054Z,7.05
2022-10-05T02:14:49.257Z,8.23
2022-10-05T02:16:04.504Z,9.25
2022-10-05T02:17:38.685Z,9.57
2022-10-05T02:18:49.283Z,7.95
2022-10-05T02:19:58.766Z,9.68
2022-10-05T02:21:03.135Z,8.80
2022-10-05T02:22:30.501Z,9.45
2022-10-05T02:23:36.346Z,9.45
2022-10-05T02:24:44.472Z,6.75
2022-10-05T02:25:51.739Z,11.90
2022-10-05T02:26:56.424Z,7.72
2022-10-05T02:28:05.927Z,9.65
2022-10-05T02:29:13.280Z,11.15
2022-10-05T02:30:17.525Z,8.05
2022-10-05T02:31:31.256Z,8.60
2022-10-05T02:33:06.674Z,11.50
2022-10-05T02:34:28.772Z,8.30
2022-10-05T02:35:42.344Z,10.07
2022-10-05T02:36:45.830Z,8.80
2022-10-05T02:37:48.249Z,8.70
2022-10-05T02:39:36.335Z,9.90
2022-10-05T02:40:58.654Z,10.50
2022-10-05T02:42:24.988Z,8.27
2022-10-05T02:43:27.889Z,8.50
2022-10-05T02:44:51.173Z,8.75
2022-10-05T02:46:05.709Z,10.00
2022-10-05T02:47:19.648Z,8.68
2022-10-05T02:48:30.814Z,11.85
2022-10-05T02:49:48.743Z,9.35
2022-10-05T02:50:58.755Z,9.65
2022-10-05T02:52:17.219Z,11.83
2022-10-05T02:53:26.655Z,10.15
2022-10-05T02:54:34.624Z,10.38
2022-10-05T02:55:42.162Z,11.60
2022-10-05T02:56:59.445Z,6.35
2022-10-05T02:58:11.862Z,8.80
2022-10-05T02:59:50.270Z,8.13
2022-10-05T03:01:13.300Z,7.18
2022-10-05T03:02:24.631Z,15.13
2022-10-05T03:03:32.330Z,7.50
2022-10-05T03:04:43.191Z,8.85
2022-10-05T03:06:02.407Z,10.65
2022-10-05T03:07:16.369Z,9.00
2022-10-05T03:08:26.925Z,12.85
2022-10-05T03:09:40.865Z,12.85
2022-10-05T03:10:57.334Z,8.65
2022-10-05T03:12:25.670Z,9.35
2022-10-05T03:13:42.601Z,8.32
2022-10-05T03:15:21.857Z,9.73
2022-10-05T03:16:49.786Z,8.05
2022-10-05T03:18:13.841Z,7.65
2022-10-05T03:19:49.639Z,14.63
2022-10-05T03:21:01.825Z,9.55
2022-10-05T03:22:10.613Z,9.18
2022-10-05T03:23:34.801Z,9.98
2022-10-05T03:24:45.924Z,11.52
2022-10-05T03:26:06.495Z,9.23
2022-10-05T03:27:43.886Z,11.23
2022-10-05T03:29:08.682Z,12.25
2022-10-05T03:30:18.177Z,9.95
2022-10-05T03:31:46.008Z,9.75
2022-10-05T03:32:57.825Z,10.02
2022-10-05T03:34:32.371Z,10.05
2022-10-05T03:36:13.629Z,10.93
2022-10-05T03:38:43.676Z,11.82
2022-10-05T03:39:54.634Z,9.93
2022-10-05T03:41:18.423Z,9.23
2022-10-05T03:42:26.471Z,9.90
2022-10-05T03:43:47.521Z,16.65
2022-10-05T03:44:56.972Z,8.95
2022-10-05T03:46:05.001Z,10.63
2022-10-05T03:47:35.912Z,8.90
2022-10-05T03:48:56.830Z,9.95
2022-10-05T03:50:12.225Z,10.27
2022-10-05T03:51:14.637Z,12.18
2022-10-05T03:52:26.211Z,11.40
2022-10-05T03:53:37.613Z,11.40
2022-10-05T03:54:45.558Z,10.25
2022-10-05T03:55:51.871Z,9.00
2022-10-05T03:56:57.414Z,14.13
2022-10-05T03:58:09.963Z,10.60
2022-10-05T03:59:16.753Z,11.70
2022-10-05T04:00:23.563Z,9.63
2022-10-05T04:01:57.001Z,10.45
2022-10-05T04:03:10.085Z,11.77
2022-10-05T04:04:21.110Z,9.40
2022-10-05T04:05:29.758Z,10.67
2022-10-05T04:06:47.861Z,9.15
2022-10-05T04:07:58.583Z,12.27
2022-10-05T04:09:13.800Z,7.90
2022-10-05T04:10:27.405Z,10.52
2022-10-05T04:11:42.655Z,11.18
2022-10-05T04:12:51.106Z,11.77
2022-10-05T04:14:04.849Z,9.80
2022-10-05T04:15:18.830Z,8.20
2022-10-05T04:16:29.960Z,10.38
2022-10-05T04:17:42.750Z,16.67
2022-10-05T04:19:01.956Z,11.05
2022-10-05T04:20:14.825Z,11.55
2022-10-05T04:21:28.365Z,10.60
2022-10-05T04:22:37.208Z,13.05
2022-10-05T04:24:11.729Z,11.00
2022-10-05T04:25:22.290Z,11.43
2022-10-05T04:26:39.356Z,11.10
2022-10-05T04:28:10.251Z,9.13
2022-10-05T04:29:21.441Z,9.52
2022-10-05T04:30:23.643Z,8.73
2022-10-05T04:31:52.205Z,10.60
2022-10-05T04:32:59.618Z,7.93
2022-10-05T04:34:44.745Z,14.63
2022-10-05T04:36:08.388Z,12.43
2022-10-05T04:37:23.119Z,11.48
2022-10-05T04:38:44.673Z,10.32
2022-10-05T04:40:13.922Z,8.68
2022-10-05T04:41:44.813Z,9.73
2022-10-05T04:43:15.293Z,11.75
2022-10-05T04:44:35.899Z,9.30
2022-10-05T04:46:07.923Z,8.68
2022-10-05T04:47:39.556Z,11.25
2022-10-05T04:50:00.252Z,9.63
2022-10-05T04:51:14.794Z,12.10
2022-10-05T04:52:28.778Z,11.38
2022-10-05T04:53:48.394Z,10.95
2022-10-05T04:55:08.918Z,9.02
2022-10-05T04:56:15.229Z,9.55
2022-10-05T04:57:37.504Z,13.85
2022-10-05T04:58:55.457Z,11.32
2022-10-05T05:00:29.704Z,10.35
2022-10-05T05:02:00.032Z,9.63
2022-10-05T05:03:23.874Z,11.85
2022-10-05T05:04:41.307Z,11.95
2022-10-05T05:06:16.294Z,13.45
2022-10-05T05:07:20.062Z,9.57
2022-10-05T05:08:56.989Z,8.82
2022-10-05T05:10:26.021Z,8.52
2022-10-05T05:12:03.712Z,12.65
2022-10-05T05:13:44.963Z,13.55
2022-10-05T05:15:10.894Z,9.07
2022-10-05T05:16:39.737Z,13.63
2022-10-05T05:17:49.754Z,11.13
2022-10-05T05:19:19.780Z,12.57
2022-10-05T05:20:53.954Z,18.23
2022-10-05T05:22:14.435Z,11.25
2022-10-05T05:23:27.174Z,10.02
2022-10-05T05:24:44.990Z,15.20
2022-10-05T05:26:27.234Z,11.30
2022-10-05T05:27:51.269Z,10.52
2022-10-05T05:29:17.403Z,17.15
2022-10-05T05:30:37.432Z,13.57
2022-10-05T05:32:01.066Z,16.98
2022-10-05T05:33:27.351Z,13.50
2022-10-05T05:35:07.082Z,13.95
2022-10-05T05:36:43.224Z,13.40
2022-10-05T05:38:20.946Z,12.40
2022-10-05T05:39:28.620Z,15.60
2022-10-05T05:40:37.374Z,16.73
2022-10-05T05:42:00.793Z,10.82
2022-10-05T05:43:26.809Z,12.18
2022-10-05T05:44:41.692Z,11.45
2022-10-05T05:46:00.514Z,10.35
2022-10-05T05:47:10.785Z,14.70
2022-10-05T05:48:25.112Z,11.25
2022-10-05T05:49:45.635Z,11.80
2022-10-05T05:51:58.173Z,12.88
2022-10-05T05:53:41.846Z,12.07
2022-10-05T05:54:56.463Z,11.25
2022-10-05T05:56:06.986Z,11.82
2022-10-05T05:57:17.541Z,18.40
2022-10-05T05:58:23.371Z,15.10
2022-10-05T05:59:32.644Z,16.95
2022-10-05T06:00:42.732Z,14.77
2022-10-05T06:01:52.971Z,17.10
2022-10-05T06:03:33.230Z,17.25
2022-10-05T06:04:45.084Z,12.18
2022-10-05T06:05:57.599Z,14.40
2022-10-05T06:07:03.314Z,13.00
2022-10-05T06:08:23.791Z,13.35
2022-10-05T06:09:37.287Z,14.23
2022-10-05T06:11:27.530Z,13.80
2022-10-05T06:12:38.366Z,16.02
2022-10-05T06:13:42.522Z,16.33
2022-10-05T06:14:52.958Z,13.02
2022-10-05T06:16:18.702Z,11.93
2022-10-05T06:17:54.647Z,12.02
2022-10-05T06:19:08.858Z,14.40
2022-10-05T06:20:30.363Z,13.25
2022-10-05T06:21:54.502Z,10.32
2022-10-05T06:23:03.147Z,12.50
2022-10-05T06:24:20.999Z,12.85
2022-10-05T06:25:33.110Z,12.15
2022-10-05T06:27:02.900Z,12.13
2022-10-05T06:28:16.286Z,15.95
2022-10-05T06:29:29.473Z,13.52
2022-10-05T06:30:56.010Z,13.88
2022-10-05T06:32:21.488Z,13.50
2022-10-05T06:33:50.735Z,14.45
2022-10-05T06:34:59.133Z,18.70
2022-10-05T06:36:15.008Z,16.00
2022-10-05T06:37:31.059Z,15.88
2022-10-05T06:38:40.513Z,15.20
2022-10-05T06:40:29.749Z,16.10
2022-10-05T06:41:47.064Z,15.70
2022-10-05T06:42:49.138Z,16.80
2022-10-05T06:44:30.352Z,17.95
2022-10-05T06:45:59.208Z,15.48
2022-10-05T06:48:00.470Z,17.13
2022-10-05T06:49:24.129Z,15.18
2022-10-05T06:51:01.500Z,15.88
2022-10-05T06:52:25.352Z,12.18
2022-10-05T06:54:04.176Z,14.70
2022-10-05T06:55:11.854Z,12.45
2022-10-05T06:56:22.302Z,16.05
2022-10-05T06:57:36.480Z,15.15
2022-10-05T06:59:09.399Z,12.05
2022-10-05T07:00:29.215Z,14.73
2022-10-05T07:01:44.596Z,15.75
2022-10-05T07:03:11.505Z,15.52
2022-10-05T07:04:28.317Z,15.73
2022-10-05T07:05:48.660Z,19.15
2022-10-05T07:07:09.956Z,13.18
2022-10-05T07:08:20.268Z,17.92
2022-10-05T07:09:31.364Z,15.73
2022-10-05T07:10:46.054Z,16.08
2022-10-05T07:12:02.273Z,15.63
2022-10-05T07:13:39.938Z,15.85
2022-10-05T07:15:16.426Z,13.15
2022-10-05T07:16:45.409Z,17.40
2022-10-05T07:17:48.305Z,16.92
2022-10-05T07:19:05.339Z,12.80
2022-10-05T07:20:32.375Z,18.40
2022-10-05T07:22:19.491Z,19.02
2022-10-05T07:23:36.698Z,11.27
2022-10-05T07:24:49.060Z,12.48
2022-10-05T07:26:23.944Z,15.27
2022-10-05T07:27:33.085Z,13.57
2022-10-05T07:28:47.390Z,14.80
2022-10-05T07:30:01.603Z,14.73
2022-10-05T07:31:19.886Z,14.10
2022-10-05T07:32:39.543Z,14.35
2022-10-05T07:33:59.650Z,13.95
2022-10-05T07:35:37.411Z,15.88
2022-10-05T07:37:46.089Z,11.23
2022-10-05T07:39:17.026Z,11.18
2022-10-05T07:40:25.170Z,17.27
2022-10-05T07:41:48.285Z,13.75
2022-10-05T07:43:00.470Z,12.20
2022-10-05T07:44:05.799Z,11.18
2022-10-05T07:45:47.174Z,14.45
2022-10-05T07:46:54.629Z,13.43
2022-10-05T07:48:05.786Z,11.80
2022-10-05T07:49:11.023Z,10.73
2022-10-05T07:50:31.092Z,15.20
2022-10-05T07:51:38.698Z,12.50
2022-10-05T07:52:55.144Z,14.68
2022-10-05T07:54:00.776Z,15.98
2022-10-05T07:55:19.516Z,17.38
2022-10-05T07:56:33.706Z,12.63
2022-10-05T07:58:06.017Z,13.98
2022-10-05T07:59:21.092Z,10.45
2022-10-05T08:00:25.781Z,11.38
2022-10-05T08:01:34.677Z,21.90
2022-10-05T08:02:45.277Z,11.88
2022-10-05T08:03:56.887Z,10.70
2022-10-05T08:05:29.533Z,12.32
2022-10-05T08:06:37.634Z,11.85
2022-10-05T08:07:40.787Z,11.02
2022-10-05T08:08:53.950Z,10.40
2022-10-05T08:10:18.853Z,10.93
2022-10-05T08:11:40.598Z,12.80
2022-10-05T08:12:53.501Z,9.63
2022-10-05T08:14:11.670Z,11.18
2022-10-05T08:15:23.577Z,9.65
2022-10-05T08:16:30.822Z,13.07
2022-10-05T08:17:44.255Z,12.23
2022-10-05T08:19:11.116Z,10.73
2022-10-05T08:20:28.261Z,12.65
2022-10-05T08:21:39.067Z,7.85
2022-10-05T08:24:00.717Z,10.48
2022-10-05T08:25:09.236Z,8.32
2022-10-05T08:26:29.802Z,11.70
2022-10-05T08:27:57.190Z,9.18
2022-10-05T08:29:24.194Z,11.05
2022-10-05T08:30:26.370Z,13.63
2022-10-05T08:31:41.797Z,7.95
2022-10-05T08:33:16.980Z,9.80
2022-10-05T08:34:49.824Z,9.52
2022-10-05T08:36:03.237Z,7.97
2022-10-05T08:37:11.769Z,10.13
2022-10-05T08:38:17.160Z,8.77
2022-10-05T08:39:21.623Z,10.90
2022-10-05T08:40:39.535Z,9.52
2022-10-05T08:42:06.823Z,8.48
2022-10-05T08:43:42.820Z,13.75
2022-10-05T08:44:57.156Z,8.80
2022-10-05T08:46:18.137Z,8.50
2022-10-05T08:49:10.003Z,9.85
2022-10-05T08:50:34.728Z,9.70
2022-10-05T08:52:18.134Z,8.88
2022-10-05T08:53:36.575Z,8.75
2022-10-05T08:54:53.992Z,6.82
2022-10-05T08:56:40.636Z,8.55
2022-10-05T08:58:03.260Z,7.38
2022-10-05T08:59:23.196Z,8.18
2022-10-05T09:00:55.047Z,10.60
2022-10-05T09:01:57.263Z,13.23
2022-10-05T09:03:15.027Z,9.32
2022-10-05T09:04:30.693Z,8.02
2022-10-05T09:06:11.851Z,8.55
2022-10-05T09:07:36.385Z,16.60
2022-10-05T09:08:47.394Z,8.60
2022-10-05T09:10:20.147Z,11.38
2022-10-05T09:11:41.487Z,11.05
2022-10-05T09:13:12.576Z,11.23
2022-10-05T09:15:40.597Z,7.72
2022-10-05T09:17:16.005Z,8.05
2022-10-05T09:18:54.988Z,10.20
2022-10-05T09:20:02.950Z,9.05
2022-10-05T09:21:39.237Z,8.88
2022-10-05T09:22:59.517Z,7.30
2022-10-05T09:24:20.497Z,9.68
2022-10-05T09:26:44.734Z,6.80
2022-10-05T09:27:56.209Z,7.05
2022-10-05T09:29:16.848Z,7.55
2022-10-05T09:30:33.661Z,10.60
2022-10-05T09:32:06.985Z,8.27
2022-10-05T09:33:33.908Z,5.88
2022-10-05T09:34:41.864Z,8.25
2022-10-05T09:36:15.647Z,7.22
2022-10-05T09:37:55.868Z,5.47
2022-10-05T09:39:14.683Z,6.60
2022-10-05T09:40:51.551Z,7.82
2022-10-05T09:42:22.338Z,8.32
2022-10-05T09:43:33.459Z,6.63
2022-10-05T09:45:21.006Z,6.63
2022-10-05T09:47:14.245Z,12.15
2022-10-05T09:48:45.731Z,5.43
2022-10-05T09:50:18.937Z,4.95
2022-10-05T09:52:13.077Z,4.68
2022-10-05T09:53:49.941Z,6.47
2022-10-05T09:55:25.571Z,9.75
2022-10-05T09:56:44.466Z,5.15
2022-10-05T09:57:55.453Z,5.22
2022-10-05T10:00:51.523Z,6.55
2022-10-05T10:02:19.826Z,3.70
2022-10-05T10:03:46.349Z,3.83
2022-10-05T10:04:48.506Z,5.07
2022-10-05T10:06:12.771Z,7.45
2022-10-05T10:07:50.255Z,5.50
2022-10-05T10:09:25.216Z,7.38
2022-10-05T10:10:55.675Z,6.43
2022-10-05T10:12:31.158Z,4.45
2022-10-05T10:14:13.217Z,5.65
2022-10-05T10:15:59.471Z,4.65
2022-10-05T10:17:35.302Z,5.82
2022-10-05T10:18:59.360Z,6.50
2022-10-05T10:20:17.246Z,4.43
2022-10-05T10:21:42.155Z,4.68
2022-10-05T10:23:08.487Z,6.80
2022-10-05T10:24:28.668Z,4.95
2022-10-05T10:26:00.731Z,2.95
2022-10-05T10:27:16.351Z,3.17
2022-10-05T10:28:30.619Z,4.13
2022-10-05T10:29:50.686Z,5.45
2022-10-05T10:31:09.803Z,3.80
2022-10-05T10:32:52.087Z,3.80
2022-10-05T10:34:30.244Z,4.95
2022-10-05T10:35:35.924Z,2.70
2022-10-05T10:37:11.258Z,6.10
2022-10-05T10:38:45.274Z,7.03
2022-10-05T10:40:03.712Z,4.22
2022-10-05T10:41:29.876Z,8.23
2022-10-05T10:43:05.808Z,3.58
2022-10-05T10:44:35.347Z,7.18
2022-10-05T10:45:47.299Z,2.95
2022-10-05T10:47:08.070Z,3.15
2022-10-05T10:48:31.359Z,3.97
2022-10-05T10:50:04.933Z,4.45
2022-10-05T10:51:44.892Z,4.82
2022-10-05T10:53:24.556Z,2.25
2022-10-05T10:54:48.131Z,2.65
2022-10-05T10:56:02.348Z,2.33
2022-10-05T10:57:08.001Z,4.03
2022-10-05T10:58:42.635Z,6.38
2022-10-05T11:00:06.261Z,4.43
2022-10-05T11:01:30.275Z,4.00
2022-10-05T11:02:57.413Z,3.55
2022-10-05T11:04:25.792Z,3.78
2022-10-05T11:05:30.789Z,4.53
2022-10-05T11:06:44.883Z,2.92
2022-10-05T11:08:08.833Z,5.55
2022-10-05T11:09:55.812Z,4.93
2022-10-05T11:10:58.892Z,6.10
2022-10-05T11:12:29.873Z,4.85
2022-10-05T11:13:52.107Z,3.42
2022-10-05T11:15:23.608Z,3.95
2022-10-05T11:16:45.889Z,6.78
2022-10-05T11:17:51.221Z,5.43
2022-10-05T11:19:02.706Z,4.75
2022-10-05T11:20:26.361Z,3.83
2022-10-05T11:21:56.112Z,3.35
2022-10-05T11:23:02.626Z,4.78
2022-10-05T11:24:22.320Z,5.00
2022-10-05T11:25:44.337Z,5.22
2022-10-05T11:27:23.886Z,4.70
2022-10-05T11:28:51.843Z,5.55
2022-10-05T11:30:17.003Z,7.05
2022-10-05T11:31:39.015Z,3.50
2022-10-05T11:33:00.508Z,4.82
2022-10-05T11:34:20.808Z,4.65
2022-10-05T11:35:28.987Z,4.75
2022-10-05T11:36:51.117Z,7.78
2022-10-05T11:38:29.438Z,4.65
2022-10-05T11:39:44.302Z,3.90
2022-10-05T11:40:58.549Z,2.63
2022-10-05T11:42:14.078Z,5.10
2022-10-05T11:43:34.905Z,4.70
2022-10-05T11:46:09.642Z,3.70
2022-10-05T11:47:20.771Z,4.68
2022-10-05T11:48:31.870Z,4.80
2022-10-05T11:49:38.883Z,3.22
2022-10-05T11:51:42.792Z,4.65
2022-10-05T11:52:57.050Z,3.13
2022-10-05T11:54:17.803Z,4.60
2022-10-05T11:55:39.325Z,7.00
2022-10-05T11:56:52.295Z,4.07
2022-10-05T11:58:01.601Z,7.43
2022-10-05T11:59:19.555Z,4.82
2022-10-05T12:00:25.134Z,4.45
2022-10-05T12:01:37.937Z,4.20
2022-10-05T12:03:00.369Z,2.80
2022-10-05T12:04:08.521Z,5.55
2022-10-05T12:05:18.735Z,4.07
2022-10-05T12:06:53.590Z,8.65
2022-10-05T12:08:07.597Z,4.32
2022-10-05T12:10:04.365Z,3.70
2022-10-05T12:11:06.600Z,4.68
2022-10-05T12:12:26.986Z,3.85
2022-10-05T12:14:05.400Z,5.97
2022-10-05T12:15:25.605Z,4.30
2022-10-05T12:16:41.539Z,4.07
2022-10-05T12:17:51.157Z,8.48
2022-10-05T12:19:21.952Z,3.92
2022-10-05T12:20:45.913Z,6.25
2022-10-05T12:22:17.730Z,3.25
2022-10-05T12:23:42.431Z,5.13
2022-10-05T12:24:44.469Z,4.72
2022-10-05T12:25:56.009Z,3.78
2022-10-05T12:27:02.132Z,3.17
2022-10-05T12:28:15.556Z,6.78
2022-10-05T12:29:56.118Z,3.97
2022-10-05T12:31:22.965Z,3.45
2022-10-05T12:32:50.027Z,8.70
2022-10-05T12:34:12.139Z,5.70
2022-10-05T12:35:49.304Z,5.57
2022-10-05T12:37:09.267Z,3.72
2022-10-05T12:38:50.018Z,3.90
2022-10-05T12:40:03.100Z,4.35
2022-10-05T12:41:50.254Z,2.90
2022-10-05T12:43:01.339Z,4.13
2022-10-05T12:44:22.329Z,7.38
2022-10-05T12:45:46.001Z,3.75
2022-10-05T12:47:12.142Z,2.60
2022-10-05T12:48:21.468Z,5.95
2022-10-05T12:50:01.526Z,4.45
2022-10-05T12:51:14.317Z,5.88
2022-10-05T12:52:39.380Z,4.97
2022-10-05T12:53:50.344Z,4.97
2022-10-05T12:55:01.744Z,4.55
2022-10-05T12:56:13.811Z,5.25
2022-10-05T12:57:31.697Z,5.72
2022-10-05T12:59:04.754Z,8.23
2022-10-05T13:00:28.685Z,4.95
2022-10-05T13:02:03.006Z,6.10
2022-10-05T13:03:16.272Z,5.35
2022-10-05T13:04:38.390Z,3.60
2022-10-05T13:06:21.563Z,3.40
2022-10-05T13:07:31.937Z,3.45
2022-10-05T13:08:46.588Z,3.65
2022-10-05T13:10:03.802Z,5.88
2022-10-05T13:11:14.746Z,3.70
2022-10-05T13:12:36.009Z,4.60
2022-10-05T13:13:56.518Z,7.88
2022-10-05T13:15:20.361Z,4.00
2022-10-05T13:16:33.230Z,3.40
2022-10-05T13:17:48.650Z,4.50
2022-10-05T13:19:21.036Z,4.13
2022-10-05T13:20:35.297Z,3.55
2022-10-05T13:21:47.317Z,3.92
2022-10-05T13:23:01.917Z,5.30
2022-10-05T13:24:23.505Z,3.97
2022-10-05T13:25:34.720Z,4.43
2022-10-05T13:26:40.976Z,4.95
2022-10-05T13:28:08.738Z,3.63
2022-10-05T13:29:30.386Z,4.43
2022-10-05T13:30:33.094Z,4.93
2022-10-05T13:31:44.832Z,13.70
2022-10-05T13:33:06.010Z,4.43
2022-10-05T13:34:22.773Z,3.45
2022-10-05T13:35:45.830Z,3.13
2022-10-05T13:36:59.599Z,4.13
2022-10-05T13:38:07.827Z,6.38
2022-10-05T13:39:25.811Z,4.78
2022-10-05T13:40:54.566Z,6.32
2022-10-05T13:42:08.904Z,2.55
2022-10-05T13:43:29.585Z,3.70
2022-10-05T13:44:50.954Z,2.88
2022-10-05T13:46:01.745Z,9.43
2022-10-05T13:48:36.924Z,12.73
2022-10-05T13:49:50.386Z,4.55
2022-10-05T13:51:06.240Z,2.90
2022-10-05T13:52:08.781Z,3.65
2022-10-05T13:53:21.412Z,5.82
2022-10-05T13:54:36.268Z,3.33
2022-10-05T13:55:58.449Z,3.13
2022-10-05T13:57:27.088Z,2.85
2022-10-05T13:58:50.294Z,6.82
2022-10-05T13:59:57.619Z,2.97
2022-10-05T14:01:17.197Z,5.43
2022-10-05T14:02:30.274Z,4.05
2022-10-05T14:03:38.163Z,3.35
2022-10-05T14:04:47.838Z,3.55
2022-10-05T14:05:59.879Z,2.92
2022-10-05T14:07:20.726Z,3.80
2022-10-05T14:09:34.887Z,3.45
2022-10-05T14:10:41.014Z,3.90
2022-10-05T14:11:53.662Z,3.67
2022-10-05T14:12:56.135Z,3.78
2022-10-05T14:14:28.325Z,5.60
2022-10-05T14:15:38.446Z,5.18
2022-10-05T14:16:50.899Z,4.03
2022-10-05T14:17:53.206Z,5.60
2022-10-05T14:18:58.978Z,3.83
2022-10-05T14:20:15.631Z,3.50
2022-10-05T14:21:24.263Z,4.13
2022-10-05T14:22:27.175Z,3.88
2022-10-05T14:23:30.258Z,3.58
2022-10-05T14:24:43.974Z,7.05
2022-10-05T14:25:54.964Z,3.50
2022-10-05T14:26:58.238Z,2.97
2022-10-05T14:28:00.430Z,3.70
2022-10-05T14:29:14.870Z,3.33
2022-10-05T14:30:23.490Z,2.67
2022-10-05T14:31:36.913Z,4.00
2022-10-05T14:32:59.047Z,6.18
2022-10-05T14:34:55.978Z,4.18
2022-10-05T14:35:59.181Z,5.47
2022-10-05T14:37:20.783Z,7.85
2022-10-05T14:38:31.853Z,4.78
2022-10-05T14:39:35.434Z,3.65
2022-10-05T14:40:38.264Z,4.50
2022-10-05T14:41:49.037Z,2.55
2022-10-05T14:44:13.624Z,3.72
2022-10-05T14:45:19.283Z,5.78
2022-10-05T14:46:27.853Z,3.60
2022-10-05T14:47:32.109Z,4.43
2022-10-05T14:48:45.166Z,3.47
2022-10-05T14:50:10.472Z,6.75
2022-10-05T14:51:31.776Z,3.10
2022-10-05T14:52:34.744Z,2.88
2022-10-05T14:53:43.562Z,3.88
2022-10-05T14:54:59.249Z,3.85
2022-10-05T14:56:33.098Z,7.07
2022-10-05T14:57:53.069Z,4.25
2022-10-05T14:59:17.266Z,3.03
2022-10-05T15:00:19.753Z,2.17
2022-10-05T15:01:33.955Z,3.58
2022-10-05T15:02:55.529Z,6.57
2022-10-05T15:04:35.449Z,4.85
2022-10-05T15:05:58.792Z,2.85
2022-10-05T15:07:12.776Z,3.40
2022-10-05T15:08:25.466Z,8.02
2022-10-05T15:09:58.564Z,4.68
2022-10-05T15:11:06.405Z,3.40
2022-10-05T15:12:13.313Z,6.43
2022-10-05T15:13:21.871Z,3.55
2022-10-05T15:14:44.278Z,4.45
2022-10-05T15:15:55.781Z,3.20
2022-10-05T15:17:03.177Z,3.83
2022-10-05T15:18:36.363Z,3.65
2022-10-05T15:19:56.960Z,2.75
2022-10-05T15:21:23.912Z,4.43
2022-10-05T15:22:59.433Z,5.85
2022-10-05T15:24:16.527Z,2.30
2022-10-05T15:25:37.134Z,3.53
2022-10-05T15:26:48.304Z,5.82
2022-10-05T15:27:50.876Z,5.68
2022-10-05T15:29:14.536Z,5.85
2022-10-05T15:30:18.367Z,2.22
2022-10-05T15:31:45.066Z,4.32
2022-10-05T15:33:12.902Z,2.78
2022-10-05T15:34:22.095Z,4.38
2022-10-05T15:35:42.714Z,3.88
2022-10-05T15:36:53.163Z,4.38
2022-10-05T15:38:08.408Z,3.47
2022-10-05T15:39:38.027Z,3.40
2022-10-05T15:40:49.578Z,4.38
2022-10-05T15:42:11.919Z,7.43
2022-10-05T15:43:18.878Z,2.30
2022-10-05T15:44:49.039Z,2.67
2022-10-05T15:46:05.179Z,4.23
2022-10-05T15:47:13.812Z,4.25
2022-10-05T15:48:36.097Z,7.13
2022-10-05T15:50:15.439Z,2.10
2022-10-05T15:51:17.528Z,2.85
2022-10-05T15:52:48.809Z,2.17
2022-10-05T15:54:34.535Z,2.67
2022-10-05T15:55:47.559Z,2.85
2022-10-05T15:56:57.413Z,2.92
2022-10-05T15:58:18.094Z,5.03
2022-10-05T15:59:50.353Z,4.05
2022-10-05T16:00:58.800Z,4.35
2022-10-05T16:02:07.095Z,2.75
2022-10-05T16:03:25.954Z,2.70
2022-10-05T16:04:50.025Z,2.15
2022-10-05T16:06:20.399Z,3.50
2022-10-05T16:07:51.188Z,2.40
2022-10-05T16:09:17.999Z,4.28
2022-10-05T16:10:23.374Z,3.40
2022-10-05T16:11:43.996Z,3.22
2022-10-05T16:13:22.696Z,2.55
2022-10-05T16:14:46.516Z,2.70
2022-10-05T16:16:00.275Z,3.17
2022-10-05T16:17:15.275Z,5.32
2022-10-05T16:18:55.437Z,3.95
2022-10-05T16:20:12.426Z,5.40
2022-10-05T16:21:29.914Z,2.65
2022-10-05T16:22:56.608Z,2.75
2022-10-05T16:24:29.473Z,2.72
2022-10-05T16:25:43.025Z,7.57
2022-10-05T16:26:58.235Z,3.20
2022-10-05T16:28:29.456Z,4.00
2022-10-05T16:29:47.252Z,3.90
2022-10-05T16:31:08.093Z,2.35
2022-10-05T16:33:26.877Z,2.17
2022-10-05T16:34:37.733Z,2.63
2022-10-05T16:35:54.656Z,5.72
2022-10-05T16:37:05.729Z,3.13
2022-10-05T16:38:08.022Z,4.65
2022-10-05T16:39:20.048Z,2.40
2022-10-05T16:40:51.341Z,2.30
2022-10-05T16:42:11.759Z,3.30
2022-10-05T16:43:49.417Z,5.88
2022-10-05T16:45:29.100Z,2.15
2022-10-05T16:46:34.217Z,4.22
2022-10-05T16:47:36.314Z,5.10
2022-10-05T16:48:47.387Z,4.60
2022-10-05T16:50:02.334Z,8.20
2022-10-05T16:51:18.396Z,2.67
2022-10-05T16:52:24.165Z,6.25
2022-10-05T16:53:33.009Z,7.03
2022-10-05T16:54:47.753Z,3.67
2022-10-05T16:56:01.943Z,3.42
2022-10-05T16:57:22.084Z,4.40
2022-10-05T16:58:41.760Z,2.60
2022-10-05T17:00:08.894Z,2.97
2022-10-05T17:01:24.706Z,5.25
2022-10-05T17:03:06.014Z,3.55
2022-10-05T17:05:20.604Z,3.20
2022-10-05T17:06:44.314Z,3.50
2022-10-05T17:08:08.060Z,6.05
2022-10-05T17:09:29.925Z,5.32
2022-10-05T17:10:43.182Z,3.95
2022-10-05T17:12:00.355Z,2.20
2022-10-05T17:13:37.325Z,2.30
2022-10-05T17:15:00.767Z,5.90
2022-10-05T17:16:12.107Z,2.40
2022-10-05T17:17:32.956Z,4.28
2022-10-05T17:19:02.730Z,4.85
2022-10-05T17:20:32.030Z,4.10
2022-10-05T17:21:44.392Z,4.13
2022-10-05T17:22:50.771Z,3.80
2022-10-05T17:24:18.097Z,3.30
2022-10-05T17:25:28.413Z,3.13
2022-10-05T17:26:39.427Z,2.63
2022-10-05T17:28:18.497Z,2.20
2022-10-05T17:29:32.098Z,2.25
2022-10-05T17:30:48.694Z,1.45
2022-10-05T17:32:06.193Z,2.45
2022-10-05T17:33:24.791Z,2.75
2022-10-05T17:34:34.793Z,5.13
2022-10-05T17:36:15.455Z,2.20
2022-10-05T17:37:35.382Z,3.15
2022-10-05T17:39:16.892Z,3.63
2022-10-05T17:41:00.330Z,2.20